sensor_id;sensor_type;location;lat;lon;timestamp;P1;durP1;ratioP1;P2;durP2;ratioP2
13552;SDS011;6847;48.830;9.116;2022-07-05T00:00:50;0.10;;;0.10;;
13552;SDS011;6847;48.830;9.116;2022-07-05T00:03:18;0.10;;;0.10;;
13552;SDS011;6847;48.830;9.116;2022-07-05T00:05:45;0.10;;;0.10;;
13552;SDS011;6847;48.830;9.116;2022-07-05T00:08:15;0.10;;;0.10;;
13552;SDS011;6847;48.830;9.116;2022-07-05T00:10:45;0.10;;;0.10;;
13552;SDS011;6847;48.830;9.116;2022-07-05T00:13:24;0.10;;;0.10;;
13552;SDS011;6847;48.830;9.116;2022-07-05T00:15:51;0.10;;;0.10;;
13552;SDS011;6847;48.830;9.116;2022-07-05T00:18:19;0.10;;;0.10;;
13552;SDS011;6847;48.830;9.116;2022-07-05T00:20:48;0.10;;;0.10;;
13552;SDS011;6847;48.830;9.116;2022-07-05T00:23:15;0.10;;;0.10;;
13552;SDS011;6847;48.830;9.116;2022-07-05T00:25:41;0.10;;;0.10;;
13552;SDS011;6847;48.830;9.116;2022-07-05T00:28:08;0.10;;;0.10;;
13552;SDS011;6847;48.830;9.116;2022-07-05T00:30:37;0.10;;;0.10;;
13552;SDS011;6847;48.830;9.116;2022-07-05T00:33:04;0.10;;;0.10;;
13552;SDS011;6847;48.830;9.116;2022-07-05T00:35:30;0.10;;;0.10;;
13552;SDS011;6847;48.830;9.116;2022-07-05T00:37:59;0.65;;;0.55;;
13552;SDS011;6847;48.830;9.116;2022-07-05T00:40:26;0.10;;;0.10;;
13552;SDS011;6847;48.830;9.116;2022-07-05T00:42:53;0.10;;;0.10;;
13552;SDS011;6847;48.830;9.116;2022-07-05T00:45:20;0.10;;;0.10;;
13552;SDS011;6847;48.830;9.116;2022-07-05T00:47:48;0.10;;;0.10;;
13552;SDS011;6847;48.830;9.116;2022-07-05T00:50:15;0.10;;;0.10;;
13552;SDS011;6847;48.830;9.116;2022-07-05T00:52:42;0.10;;;0.10;;
13552;SDS011;6847;48.830;9.116;2022-07-05T00:55:11;0.10;;;0.10;;
13552;SDS011;6847;48.830;9.116;2022-07-05T00:57:38;0.10;;;0.10;;
13552;SDS011;6847;48.830;9.116;2022-07-05T01:00:06;0.10;;;0.10;;
13552;SDS011;6847;48.830;9.116;2022-07-05T01:02:33;0.10;;;0.10;;
13552;SDS011;6847;48.830;9.116;2022-07-05T01:05:05;0.10;;;0.10;;
13552;SDS011;6847;48.830;9.116;2022-07-05T01:07:32;0.10;;;0.10;;
13552;SDS011;6847;48.830;9.116;2022-07-05T01:10:01;0.10;;;0.10;;
13552;SDS011;6847;48.830;9.116;2022-07-05T01:12:28;0.10;;;0.10;;
13552;SDS011;6847;48.830;9.116;2022-07-05T01:14:54;0.10;;;0.10;;
13552;SDS011;6847;48.830;9.116;2022-07-05T01:17:22;0.10;;;0.10;;
13552;SDS011;6847;48.830;9.116;2022-07-05T01:19:50;0.10;;;0.10;;
13552;SDS011;6847;48.830;9.116;2022-07-05T01:22:18;0.10;;;0.10;;
13552;SDS011;6847;48.830;9.116;2022-07-05T01:24:48;0.10;;;0.10;;
13552;SDS011;6847;48.830;9.116;2022-07-05T01:30:22;0.10;;;0.10;;
13552;SDS011;6847;48.830;9.116;2022-07-05T01:32:49;0.10;;;0.10;;
13552;SDS011;6847;48.830;9.116;2022-07-05T01:35:17;0.20;;;0.20;;
13552;SDS011;6847;48.830;9.116;2022-07-05T01:37:46;0.10;;;0.10;;
13552;SDS011;6847;48.830;9.116;2022-07-05T01:40:15;0.10;;;0.10;;
13552;SDS011;6847;48.830;9.116;2022-07-05T01:42:42;0.10;;;0.10;;
13552;SDS011;6847;48.830;9.116;2022-07-05T01:45:09;0.10;;;0.10;;
13552;SDS011;6847;48.830;9.116;2022-07-05T01:47:38;0.10;;;0.10;;
13552;SDS011;6847;48.830;9.116;2022-07-05T01:50:14;0.10;;;0.10;;
13552;SDS011;6847;48.830;9.116;2022-07-05T01:52:43;0.10;;;0.10;;
13552;SDS011;6847;48.830;9.116;2022-07-05T01:55:15;0.10;;;0.10;;
13552;SDS011;6847;48.830;9.116;2022-07-05T01:57:41;0.10;;;0.10;;
13552;SDS011;6847;48.830;9.116;2022-07-05T02:00:12;0.10;;;0.10;;
13552;SDS011;6847;48.830;9.116;2022-07-05T02:02:39;0.10;;;0.10;;
13552;SDS011;6847;48.830;9.116;2022-07-05T02:05:07;0.10;;;0.10;;
13552;SDS011;6847;48.830;9.116;2022-07-05T02:07:35;0.10;;;0.10;;
13552;SDS011;6847;48.830;9.116;2022-07-05T02:10:02;0.10;;;0.10;;
13552;SDS011;6847;48.830;9.116;2022-07-05T02:12:30;0.10;;;0.10;;
13552;SDS011;6847;48.830;9.116;2022-07-05T02:15:00;0.10;;;0.10;;
13552;SDS011;6847;48.830;9.116;2022-07-05T02:17:29;0.10;;;0.10;;
13552;SDS011;6847;48.830;9.116;2022-07-05T02:19:56;0.10;;;0.10;;
13552;SDS011;6847;48.830;9.116;2022-07-05T02:22:28;0.10;;;0.10;;
13552;SDS011;6847;48.830;9.116;2022-07-05T02:24:55;0.10;;;0.10;;
13552;SDS011;6847;48.830;9.116;2022-07-05T02:27:21;0.10;;;0.10;;
13552;SDS011;6847;48.830;9.116;2022-07-05T02:29:53;0.10;;;0.10;;
13552;SDS011;6847;48.830;9.116;2022-07-05T02:32:20;0.10;;;0.10;;
13552;SDS011;6847;48.830;9.116;2022-07-05T02:34:46;0.10;;;0.10;;
13552;SDS011;6847;48.830;9.116;2022-07-05T02:37:14;0.10;;;0.10;;
13552;SDS011;6847;48.830;9.116;2022-07-05T02:39:44;0.10;;;0.10;;
13552;SDS011;6847;48.830;9.116;2022-07-05T02:42:11;0.10;;;0.10;;
13552;SDS011;6847;48.830;9.116;2022-07-05T02:44:39;0.00;;;0.00;;
13552;SDS011;6847;48.830;9.116;2022-07-05T02:47:13;0.10;;;0.10;;
13552;SDS011;6847;48.830;9.116;2022-07-05T02:49:39;0.10;;;0.10;;
13552;SDS011;6847;48.830;9.116;2022-07-05T02:52:06;0.10;;;0.10;;
13552;SDS011;6847;48.830;9.116;2022-07-05T02:54:33;0.15;;;0.15;;
13552;SDS011;6847;48.830;9.116;2022-07-05T02:57:00;0.10;;;0.10;;
13552;SDS011;6847;48.830;9.116;2022-07-05T03:03:21;0.10;;;0.10;;
13552;SDS011;6847;48.830;9.116;2022-07-05T03:05:48;0.10;;;0.10;;
13552;SDS011;6847;48.830;9.116;2022-07-05T03:08:14;0.10;;;0.10;;
13552;SDS011;6847;48.830;9.116;2022-07-05T03:10:41;0.10;;;0.10;;
13552;SDS011;6847;48.830;9.116;2022-07-05T03:13:08;0.10;;;0.10;;
13552;SDS011;6847;48.830;9.116;2022-07-05T03:15:35;0.10;;;0.10;;
13552;SDS011;6847;48.830;9.116;2022-07-05T03:18:04;0.10;;;0.10;;
13552;SDS011;6847;48.830;9.116;2022-07-05T03:20:32;0.10;;;0.10;;
13552;SDS011;6847;48.830;9.116;2022-07-05T03:22:59;0.10;;;0.10;;
13552;SDS011;6847;48.830;9.116;2022-07-05T03:25:26;0.10;;;0.10;;
13552;SDS011;6847;48.830;9.116;2022-07-05T03:27:52;0.10;;;0.10;;
13552;SDS011;6847;48.830;9.116;2022-07-05T03:30:19;0.10;;;0.10;;
13552;SDS011;6847;48.830;9.116;2022-07-05T03:32:46;0.10;;;0.10;;
13552;SDS011;6847;48.830;9.116;2022-07-05T03:35:13;0.10;;;0.10;;
13552;SDS011;6847;48.830;9.116;2022-07-05T03:37:53;0.10;;;0.10;;
13552;SDS011;6847;48.830;9.116;2022-07-05T03:40:20;0.10;;;0.10;;
13552;SDS011;6847;48.830;9.116;2022-07-05T03:42:47;0.10;;;0.10;;
13552;SDS011;6847;48.830;9.116;2022-07-05T03:45:13;0.10;;;0.10;;
13552;SDS011;6847;48.830;9.116;2022-07-05T03:47:40;0.10;;;0.10;;
13552;SDS011;6847;48.830;9.116;2022-07-05T03:50:07;0.10;;;0.10;;
13552;SDS011;6847;48.830;9.116;2022-07-05T03:52:34;0.10;;;0.10;;
13552;SDS011;6847;48.830;9.116;2022-07-05T03:55:02;0.10;;;0.10;;
13552;SDS011;6847;48.830;9.116;2022-07-05T03:57:29;0.10;;;0.10;;
13552;SDS011;6847;48.830;9.116;2022-07-05T03:59:56;0.10;;;0.10;;
13552;SDS011;6847;48.830;9.116;2022-07-05T04:02:23;0.03;;;0.03;;
13552;SDS011;6847;48.830;9.116;2022-07-05T04:05:00;0.10;;;0.10;;
13552;SDS011;6847;48.830;9.116;2022-07-05T04:07:27;0.10;;;0.10;;
13552;SDS011;6847;48.830;9.116;2022-07-05T04:09:53;0.10;;;0.10;;
13552;SDS011;6847;48.830;9.116;2022-07-05T04:12:21;0.10;;;0.10;;
13552;SDS011;6847;48.830;9.116;2022-07-05T04:14:48;0.10;;;0.10;;
13552;SDS011;6847;48.830;9.116;2022-07-05T04:17:15;0.10;;;0.10;;
13552;SDS011;6847;48.830;9.116;2022-07-05T04:19:41;0.10;;;0.10;;
13552;SDS011;6847;48.830;9.116;2022-07-05T04:22:08;0.10;;;0.10;;
13552;SDS011;6847;48.830;9.116;2022-07-05T04:24:35;0.10;;;0.10;;
13552;SDS011;6847;48.830;9.116;2022-07-05T04:27:16;0.10;;;0.10;;
13552;SDS011;6847;48.830;9.116;2022-07-05T04:29:44;0.10;;;0.10;;
13552;SDS011;6847;48.830;9.116;2022-07-05T04:32:13;0.10;;;0.10;;
13552;SDS011;6847;48.830;9.116;2022-07-05T04:34:39;0.10;;;0.10;;
13552;SDS011;6847;48.830;9.116;2022-07-05T04:37:06;0.10;;;0.10;;
13552;SDS011;6847;48.830;9.116;2022-07-05T04:39:35;0.10;;;0.10;;
13552;SDS011;6847;48.830;9.116;2022-07-05T04:42:03;0.10;;;0.10;;
13552;SDS011;6847;48.830;9.116;2022-07-05T04:44:38;0.17;;;0.17;;
13552;SDS011;6847;48.830;9.116;2022-07-05T04:49:54;0.10;;;0.10;;
13552;SDS011;6847;48.830;9.116;2022-07-05T04:52:22;0.10;;;0.10;;
13552;SDS011;6847;48.830;9.116;2022-07-05T04:54:49;0.10;;;0.10;;
13552;SDS011;6847;48.830;9.116;2022-07-05T04:57:16;0.10;;;0.10;;
13552;SDS011;6847;48.830;9.116;2022-07-05T04:59:43;0.10;;;0.10;;
13552;SDS011;6847;48.830;9.116;2022-07-05T05:02:10;0.10;;;0.10;;
13552;SDS011;6847;48.830;9.116;2022-07-05T05:04:39;0.10;;;0.10;;
13552;SDS011;6847;48.830;9.116;2022-07-05T05:07:05;0.10;;;0.10;;
13552;SDS011;6847;48.830;9.116;2022-07-05T05:12:51;0.10;;;0.10;;
13552;SDS011;6847;48.830;9.116;2022-07-05T05:15:17;0.10;;;0.10;;
13552;SDS011;6847;48.830;9.116;2022-07-05T05:17:44;0.10;;;0.10;;
13552;SDS011;6847;48.830;9.116;2022-07-05T05:20:15;0.10;;;0.10;;
13552;SDS011;6847;48.830;9.116;2022-07-05T05:22:43;0.10;;;0.10;;
13552;SDS011;6847;48.830;9.116;2022-07-05T05:25:10;0.13;;;0.13;;
13552;SDS011;6847;48.830;9.116;2022-07-05T05:27:40;0.10;;;0.10;;
13552;SDS011;6847;48.830;9.116;2022-07-05T05:30:09;0.10;;;0.10;;
13552;SDS011;6847;48.830;9.116;2022-07-05T05:32:36;0.10;;;0.10;;
13552;SDS011;6847;48.830;9.116;2022-07-05T05:35:04;0.10;;;0.10;;
13552;SDS011;6847;48.830;9.116;2022-07-05T05:40:17;0.10;;;0.10;;
13552;SDS011;6847;48.830;9.116;2022-07-05T05:42:46;0.10;;;0.10;;
13552;SDS011;6847;48.830;9.116;2022-07-05T05:45:13;0.00;;;0.00;;
13552;SDS011;6847;48.830;9.116;2022-07-05T05:47:46;0.10;;;0.10;;
13552;SDS011;6847;48.830;9.116;2022-07-05T05:50:13;0.10;;;0.10;;
13552;SDS011;6847;48.830;9.116;2022-07-05T05:52:40;0.10;;;0.10;;
13552;SDS011;6847;48.830;9.116;2022-07-05T05:55:08;0.10;;;0.10;;
13552;SDS011;6847;48.830;9.116;2022-07-05T05:57:35;0.10;;;0.10;;
13552;SDS011;6847;48.830;9.116;2022-07-05T06:00:02;0.10;;;0.10;;
13552;SDS011;6847;48.830;9.116;2022-07-05T06:02:30;0.10;;;0.10;;
13552;SDS011;6847;48.830;9.116;2022-07-05T06:04:59;0.10;;;0.10;;
13552;SDS011;6847;48.830;9.116;2022-07-05T06:07:26;0.10;;;0.10;;
13552;SDS011;6847;48.830;9.116;2022-07-05T06:09:52;0.10;;;0.10;;
13552;SDS011;6847;48.830;9.116;2022-07-05T06:12:20;0.10;;;0.10;;
13552;SDS011;6847;48.830;9.116;2022-07-05T06:14:46;0.15;;;0.15;;
13552;SDS011;6847;48.830;9.116;2022-07-05T06:17:13;0.10;;;0.10;;
13552;SDS011;6847;48.830;9.116;2022-07-05T06:19:40;0.10;;;0.10;;
13552;SDS011;6847;48.830;9.116;2022-07-05T06:22:08;0.10;;;0.10;;
13552;SDS011;6847;48.830;9.116;2022-07-05T06:24:34;0.10;;;0.10;;
13552;SDS011;6847;48.830;9.116;2022-07-05T06:27:01;0.10;;;0.10;;
13552;SDS011;6847;48.830;9.116;2022-07-05T06:29:29;0.10;;;0.10;;
13552;SDS011;6847;48.830;9.116;2022-07-05T06:31:55;0.10;;;0.10;;
13552;SDS011;6847;48.830;9.116;2022-07-05T06:34:24;0.10;;;0.10;;
13552;SDS011;6847;48.830;9.116;2022-07-05T06:36:50;0.10;;;0.10;;
13552;SDS011;6847;48.830;9.116;2022-07-05T06:39:17;0.10;;;0.10;;
13552;SDS011;6847;48.830;9.116;2022-07-05T06:41:44;0.10;;;0.10;;
13552;SDS011;6847;48.830;9.116;2022-07-05T06:44:10;0.10;;;0.10;;
13552;SDS011;6847;48.830;9.116;2022-07-05T06:46:38;0.10;;;0.10;;
13552;SDS011;6847;48.830;9.116;2022-07-05T06:49:05;0.10;;;0.10;;
13552;SDS011;6847;48.830;9.116;2022-07-05T06:51:31;0.10;;;0.10;;
13552;SDS011;6847;48.830;9.116;2022-07-05T06:53:58;0.10;;;0.10;;
13552;SDS011;6847;48.830;9.116;2022-07-05T06:56:27;0.10;;;0.10;;
13552;SDS011;6847;48.830;9.116;2022-07-05T06:58:56;0.10;;;0.10;;
13552;SDS011;6847;48.830;9.116;2022-07-05T07:01:23;0.10;;;0.10;;
13552;SDS011;6847;48.830;9.116;2022-07-05T07:03:51;0.10;;;0.10;;
13552;SDS011;6847;48.830;9.116;2022-07-05T07:06:18;0.10;;;0.10;;
13552;SDS011;6847;48.830;9.116;2022-07-05T07:08:46;0.10;;;0.10;;
13552;SDS011;6847;48.830;9.116;2022-07-05T07:11:30;0.20;;;0.20;;
13552;SDS011;6847;48.830;9.116;2022-07-05T07:13:57;0.10;;;0.10;;
13552;SDS011;6847;48.830;9.116;2022-07-05T07:16:24;0.10;;;0.10;;
13552;SDS011;6847;48.830;9.116;2022-07-05T07:18:54;0.13;;;0.13;;
13552;SDS011;6847;48.830;9.116;2022-07-05T07:21:23;0.10;;;0.10;;
13552;SDS011;6847;48.830;9.116;2022-07-05T07:23:49;0.10;;;0.10;;
13552;SDS011;6847;48.830;9.116;2022-07-05T07:26:16;0.10;;;0.10;;
13552;SDS011;6847;48.830;9.116;2022-07-05T07:28:43;0.10;;;0.10;;
13552;SDS011;6847;48.830;9.116;2022-07-05T07:31:10;0.20;;;0.20;;
13552;SDS011;6847;48.830;9.116;2022-07-05T07:33:36;0.20;;;0.20;;
13552;SDS011;6847;48.830;9.116;2022-07-05T07:39:24;0.10;;;0.10;;
13552;SDS011;6847;48.830;9.116;2022-07-05T07:41:51;0.10;;;0.10;;
13552;SDS011;6847;48.830;9.116;2022-07-05T07:44:19;0.10;;;0.10;;
13552;SDS011;6847;48.830;9.116;2022-07-05T07:46:46;0.10;;;0.10;;
13552;SDS011;6847;48.830;9.116;2022-07-05T07:49:13;0.10;;;0.10;;
13552;SDS011;6847;48.830;9.116;2022-07-05T07:51:40;0.10;;;0.10;;
13552;SDS011;6847;48.830;9.116;2022-07-05T07:54:06;0.20;;;0.20;;
13552;SDS011;6847;48.830;9.116;2022-07-05T07:56:34;0.10;;;0.10;;
13552;SDS011;6847;48.830;9.116;2022-07-05T07:59:01;0.20;;;0.20;;
13552;SDS011;6847;48.830;9.116;2022-07-05T08:01:28;0.20;;;0.20;;
13552;SDS011;6847;48.830;9.116;2022-07-05T08:03:56;0.13;;;0.13;;
13552;SDS011;6847;48.830;9.116;2022-07-05T08:06:22;0.10;;;0.10;;
13552;SDS011;6847;48.830;9.116;2022-07-05T08:08:51;0.20;;;0.20;;
13552;SDS011;6847;48.830;9.116;2022-07-05T08:11:18;0.20;;;0.20;;
13552;SDS011;6847;48.830;9.116;2022-07-05T08:13:46;0.20;;;0.20;;
13552;SDS011;6847;48.830;9.116;2022-07-05T08:16:15;0.20;;;0.20;;
13552;SDS011;6847;48.830;9.116;2022-07-05T08:18:41;0.10;;;0.10;;
13552;SDS011;6847;48.830;9.116;2022-07-05T08:21:25;0.10;;;0.10;;
13552;SDS011;6847;48.830;9.116;2022-07-05T08:24:04;0.10;;;0.10;;
13552;SDS011;6847;48.830;9.116;2022-07-05T08:26:35;0.20;;;0.20;;
13552;SDS011;6847;48.830;9.116;2022-07-05T08:29:08;0.20;;;0.20;;
13552;SDS011;6847;48.830;9.116;2022-07-05T08:31:37;0.10;;;0.10;;
13552;SDS011;6847;48.830;9.116;2022-07-05T08:34:06;0.10;;;0.10;;
13552;SDS011;6847;48.830;9.116;2022-07-05T08:36:32;0.10;;;0.10;;
13552;SDS011;6847;48.830;9.116;2022-07-05T08:38:59;0.20;;;0.20;;
13552;SDS011;6847;48.830;9.116;2022-07-05T08:41:26;0.20;;;0.20;;
13552;SDS011;6847;48.830;9.116;2022-07-05T08:43:52;0.17;;;0.17;;
13552;SDS011;6847;48.830;9.116;2022-07-05T08:46:21;0.30;;;0.30;;
13552;SDS011;6847;48.830;9.116;2022-07-05T08:48:56;0.20;;;0.20;;
13552;SDS011;6847;48.830;9.116;2022-07-05T08:51:25;0.20;;;0.20;;
13552;SDS011;6847;48.830;9.116;2022-07-05T08:53:53;0.15;;;0.15;;
13552;SDS011;6847;48.830;9.116;2022-07-05T08:56:21;0.20;;;0.20;;
13552;SDS011;6847;48.830;9.116;2022-07-05T08:58:51;0.20;;;0.20;;
13552;SDS011;6847;48.830;9.116;2022-07-05T09:01:18;0.28;;;0.28;;
13552;SDS011;6847;48.830;9.116;2022-07-05T09:03:47;0.28;;;0.28;;
13552;SDS011;6847;48.830;9.116;2022-07-05T09:06:16;0.30;;;0.30;;
13552;SDS011;6847;48.830;9.116;2022-07-05T09:08:44;0.20;;;0.20;;
13552;SDS011;6847;48.830;9.116;2022-07-05T09:11:11;0.20;;;0.20;;
13552;SDS011;6847;48.830;9.116;2022-07-05T09:13:40;0.30;;;0.30;;
13552;SDS011;6847;48.830;9.116;2022-07-05T09:16:08;0.22;;;0.22;;
13552;SDS011;6847;48.830;9.116;2022-07-05T09:18:39;0.30;;;0.30;;
13552;SDS011;6847;48.830;9.116;2022-07-05T09:23:45;0.20;;;0.20;;
13552;SDS011;6847;48.830;9.116;2022-07-05T09:26:20;0.30;;;0.30;;
13552;SDS011;6847;48.830;9.116;2022-07-05T09:28:54;0.38;;;0.38;;
13552;SDS011;6847;48.830;9.116;2022-07-05T09:31:26;0.40;;;0.40;;
13552;SDS011;6847;48.830;9.116;2022-07-05T09:33:55;0.32;;;0.32;;
13552;SDS011;6847;48.830;9.116;2022-07-05T09:39:39;0.20;;;0.20;;
13552;SDS011;6847;48.830;9.116;2022-07-05T09:42:12;0.30;;;0.30;;
13552;SDS011;6847;48.830;9.116;2022-07-05T09:49:56;0.30;;;0.30;;
13552;SDS011;6847;48.830;9.116;2022-07-05T09:52:29;0.40;;;0.40;;
13552;SDS011;6847;48.830;9.116;2022-07-05T09:55:01;0.40;;;0.40;;
13552;SDS011;6847;48.830;9.116;2022-07-05T09:57:29;0.30;;;0.30;;
13552;SDS011;6847;48.830;9.116;2022-07-05T09:59:57;0.30;;;0.30;;
13552;SDS011;6847;48.830;9.116;2022-07-05T10:02:34;0.30;;;0.30;;
13552;SDS011;6847;48.830;9.116;2022-07-05T10:05:12;0.40;;;0.40;;
13552;SDS011;6847;48.830;9.116;2022-07-05T10:07:40;0.30;;;0.30;;
13552;SDS011;6847;48.830;9.116;2022-07-05T10:10:11;0.40;;;0.40;;
13552;SDS011;6847;48.830;9.116;2022-07-05T10:12:39;0.30;;;0.30;;
13552;SDS011;6847;48.830;9.116;2022-07-05T10:15:08;0.30;;;0.30;;
13552;SDS011;6847;48.830;9.116;2022-07-05T10:17:37;0.40;;;0.40;;
13552;SDS011;6847;48.830;9.116;2022-07-05T10:20:08;0.40;;;0.40;;
13552;SDS011;6847;48.830;9.116;2022-07-05T10:22:43;0.30;;;0.30;;
13552;SDS011;6847;48.830;9.116;2022-07-05T10:25:11;0.20;;;0.20;;
13552;SDS011;6847;48.830;9.116;2022-07-05T10:27:40;0.30;;;0.30;;
13552;SDS011;6847;48.830;9.116;2022-07-05T10:30:09;0.40;;;0.40;;
13552;SDS011;6847;48.830;9.116;2022-07-05T10:32:39;0.28;;;0.28;;
13552;SDS011;6847;48.830;9.116;2022-07-05T10:35:06;0.20;;;0.20;;
13552;SDS011;6847;48.830;9.116;2022-07-05T10:37:34;0.30;;;0.30;;
13552;SDS011;6847;48.830;9.116;2022-07-05T10:40:02;0.30;;;0.30;;
13552;SDS011;6847;48.830;9.116;2022-07-05T10:42:37;0.30;;;0.30;;
13552;SDS011;6847;48.830;9.116;2022-07-05T10:48:17;0.30;;;0.30;;
13552;SDS011;6847;48.830;9.116;2022-07-05T10:50:58;0.30;;;0.30;;
13552;SDS011;6847;48.830;9.116;2022-07-05T10:53:31;0.38;;;0.38;;
13552;SDS011;6847;48.830;9.116;2022-07-05T10:56:29;0.43;;;0.43;;
13552;SDS011;6847;48.830;9.116;2022-07-05T10:59:05;0.30;;;0.30;;
13552;SDS011;6847;48.830;9.116;2022-07-05T11:01:35;0.30;;;0.30;;
13552;SDS011;6847;48.830;9.116;2022-07-05T11:06:55;0.38;;;0.38;;
13552;SDS011;6847;48.830;9.116;2022-07-05T11:09:28;0.30;;;0.30;;
13552;SDS011;6847;48.830;9.116;2022-07-05T11:12:07;0.30;;;0.30;;
13552;SDS011;6847;48.830;9.116;2022-07-05T11:17:22;0.20;;;0.20;;
13552;SDS011;6847;48.830;9.116;2022-07-05T11:20:02;0.30;;;0.30;;
13552;SDS011;6847;48.830;9.116;2022-07-05T11:22:34;0.20;;;0.20;;
13552;SDS011;6847;48.830;9.116;2022-07-05T11:25:02;0.50;;;0.50;;
13552;SDS011;6847;48.830;9.116;2022-07-05T11:27:30;0.35;;;0.35;;
13552;SDS011;6847;48.830;9.116;2022-07-05T11:30:00;0.43;;;0.43;;
13552;SDS011;6847;48.830;9.116;2022-07-05T11:32:35;0.30;;;0.30;;
13552;SDS011;6847;48.830;9.116;2022-07-05T11:35:12;0.40;;;0.40;;
13552;SDS011;6847;48.830;9.116;2022-07-05T11:37:57;0.30;;;0.30;;
13552;SDS011;6847;48.830;9.116;2022-07-05T11:40:31;0.30;;;0.30;;
13552;SDS011;6847;48.830;9.116;2022-07-05T11:43:07;0.20;;;0.20;;
13552;SDS011;6847;48.830;9.116;2022-07-05T11:45:36;0.30;;;0.30;;
13552;SDS011;6847;48.830;9.116;2022-07-05T11:48:04;0.40;;;0.40;;
13552;SDS011;6847;48.830;9.116;2022-07-05T11:50:33;0.35;;;0.35;;
13552;SDS011;6847;48.830;9.116;2022-07-05T11:53:04;0.30;;;0.30;;
13552;SDS011;6847;48.830;9.116;2022-07-05T11:55:31;0.30;;;0.30;;
13552;SDS011;6847;48.830;9.116;2022-07-05T11:58:09;0.30;;;0.30;;
13552;SDS011;6847;48.830;9.116;2022-07-05T12:00:38;0.30;;;0.30;;
13552;SDS011;6847;48.830;9.116;2022-07-05T12:03:10;0.30;;;0.30;;
13552;SDS011;6847;48.830;9.116;2022-07-05T12:05:39;0.32;;;0.32;;
13552;SDS011;6847;48.830;9.116;2022-07-05T12:08:09;0.30;;;0.30;;
13552;SDS011;6847;48.830;9.116;2022-07-05T12:10:35;0.30;;;0.30;;
13552;SDS011;6847;48.830;9.116;2022-07-05T12:13:20;0.20;;;0.20;;
13552;SDS011;6847;48.830;9.116;2022-07-05T12:15:51;0.40;;;0.40;;
13552;SDS011;6847;48.830;9.116;2022-07-05T12:18:29;0.32;;;0.32;;
13552;SDS011;6847;48.830;9.116;2022-07-05T12:20:56;0.30;;;0.30;;
13552;SDS011;6847;48.830;9.116;2022-07-05T12:23:26;0.30;;;0.30;;
13552;SDS011;6847;48.830;9.116;2022-07-05T12:25:53;0.20;;;0.20;;
13552;SDS011;6847;48.830;9.116;2022-07-05T12:28:24;0.30;;;0.30;;
13552;SDS011;6847;48.830;9.116;2022-07-05T12:30:54;0.22;;;0.22;;
13552;SDS011;6847;48.830;9.116;2022-07-05T12:33:23;0.30;;;0.30;;
13552;SDS011;6847;48.830;9.116;2022-07-05T12:35:49;0.30;;;0.30;;
13552;SDS011;6847;48.830;9.116;2022-07-05T12:38:17;0.35;;;0.35;;
13552;SDS011;6847;48.830;9.116;2022-07-05T12:40:45;0.30;;;0.30;;
13552;SDS011;6847;48.830;9.116;2022-07-05T12:43:18;0.35;;;0.35;;
13552;SDS011;6847;48.830;9.116;2022-07-05T12:46:02;0.30;;;0.30;;
13552;SDS011;6847;48.830;9.116;2022-07-05T12:48:34;0.40;;;0.40;;
13552;SDS011;6847;48.830;9.116;2022-07-05T12:51:01;0.20;;;0.20;;
13552;SDS011;6847;48.830;9.116;2022-07-05T12:53:29;0.50;;;0.50;;
13552;SDS011;6847;48.830;9.116;2022-07-05T12:56:16;0.32;;;0.32;;
13552;SDS011;6847;48.830;9.116;2022-07-05T12:59:10;0.30;;;0.30;;
13552;SDS011;6847;48.830;9.116;2022-07-05T13:01:40;0.43;;;0.43;;
13552;SDS011;6847;48.830;9.116;2022-07-05T13:04:08;0.40;;;0.40;;
13552;SDS011;6847;48.830;9.116;2022-07-05T13:06:39;0.30;;;0.30;;
13552;SDS011;6847;48.830;9.116;2022-07-05T13:09:29;0.30;;;0.30;;
13552;SDS011;6847;48.830;9.116;2022-07-05T13:12:07;0.20;;;0.20;;
13552;SDS011;6847;48.830;9.116;2022-07-05T13:14:36;0.40;;;0.40;;
13552;SDS011;6847;48.830;9.116;2022-07-05T13:17:06;0.30;;;0.30;;
13552;SDS011;6847;48.830;9.116;2022-07-05T13:19:36;0.40;;;0.40;;
13552;SDS011;6847;48.830;9.116;2022-07-05T13:22:07;0.30;;;0.30;;
13552;SDS011;6847;48.830;9.116;2022-07-05T13:24:36;0.40;;;0.40;;
13552;SDS011;6847;48.830;9.116;2022-07-05T13:27:18;0.40;;;0.40;;
13552;SDS011;6847;48.830;9.116;2022-07-05T13:29:46;0.40;;;0.40;;
13552;SDS011;6847;48.830;9.116;2022-07-05T13:32:19;0.43;;;0.43;;
13552;SDS011;6847;48.830;9.116;2022-07-05T13:34:50;0.40;;;0.40;;
13552;SDS011;6847;48.830;9.116;2022-07-05T13:37:17;0.45;;;0.45;;
13552;SDS011;6847;48.830;9.116;2022-07-05T13:39:45;0.40;;;0.40;;
13552;SDS011;6847;48.830;9.116;2022-07-05T13:42:12;0.30;;;0.30;;
13552;SDS011;6847;48.830;9.116;2022-07-05T13:44:44;0.50;;;0.50;;
13552;SDS011;6847;48.830;9.116;2022-07-05T13:47:12;0.40;;;0.40;;
13552;SDS011;6847;48.830;9.116;2022-07-05T13:49:42;0.50;;;0.50;;
13552;SDS011;6847;48.830;9.116;2022-07-05T13:52:12;0.40;;;0.40;;
13552;SDS011;6847;48.830;9.116;2022-07-05T13:54:39;0.35;;;0.35;;
13552;SDS011;6847;48.830;9.116;2022-07-05T13:57:09;0.73;;;0.73;;
13552;SDS011;6847;48.830;9.116;2022-07-05T13:59:40;0.30;;;0.30;;
13552;SDS011;6847;48.830;9.116;2022-07-05T14:02:08;0.45;;;0.45;;
13552;SDS011;6847;48.830;9.116;2022-07-05T14:04:36;0.30;;;0.30;;
13552;SDS011;6847;48.830;9.116;2022-07-05T14:07:12;0.52;;;0.52;;
13552;SDS011;6847;48.830;9.116;2022-07-05T14:09:39;0.30;;;0.30;;
13552;SDS011;6847;48.830;9.116;2022-07-05T14:12:09;0.50;;;0.50;;
13552;SDS011;6847;48.830;9.116;2022-07-05T14:14:36;0.40;;;0.40;;
13552;SDS011;6847;48.830;9.116;2022-07-05T14:17:03;0.38;;;0.38;;
13552;SDS011;6847;48.830;9.116;2022-07-05T14:19:30;0.32;;;0.32;;
13552;SDS011;6847;48.830;9.116;2022-07-05T14:22:02;0.43;;;0.43;;
13552;SDS011;6847;48.830;9.116;2022-07-05T14:24:30;0.40;;;0.40;;
13552;SDS011;6847;48.830;9.116;2022-07-05T14:27:01;0.70;;;0.70;;
13552;SDS011;6847;48.830;9.116;2022-07-05T14:29:33;1.45;;;1.35;;
13552;SDS011;6847;48.830;9.116;2022-07-05T14:32:00;0.30;;;0.30;;
13552;SDS011;6847;48.830;9.116;2022-07-05T14:34:28;0.77;;;0.77;;
13552;SDS011;6847;48.830;9.116;2022-07-05T14:37:01;0.32;;;0.32;;
13552;SDS011;6847;48.830;9.116;2022-07-05T14:39:30;0.52;;;0.52;;
13552;SDS011;6847;48.830;9.116;2022-07-05T14:42:01;0.47;;;0.47;;
13552;SDS011;6847;48.830;9.116;2022-07-05T14:44:30;0.43;;;0.43;;
13552;SDS011;6847;48.830;9.116;2022-07-05T14:46:57;0.30;;;0.30;;
13552;SDS011;6847;48.830;9.116;2022-07-05T14:49:24;0.30;;;0.30;;
13552;SDS011;6847;48.830;9.116;2022-07-05T14:51:50;0.40;;;0.40;;
13552;SDS011;6847;48.830;9.116;2022-07-05T14:54:17;0.60;;;0.60;;
13552;SDS011;6847;48.830;9.116;2022-07-05T14:56:45;0.38;;;0.38;;
13552;SDS011;6847;48.830;9.116;2022-07-05T14:59:12;0.40;;;0.40;;
13552;SDS011;6847;48.830;9.116;2022-07-05T15:01:39;0.40;;;0.40;;
13552;SDS011;6847;48.830;9.116;2022-07-05T15:04:06;0.45;;;0.45;;
13552;SDS011;6847;48.830;9.116;2022-07-05T15:06:32;0.40;;;0.40;;
13552;SDS011;6847;48.830;9.116;2022-07-05T15:09:00;0.47;;;0.47;;
13552;SDS011;6847;48.830;9.116;2022-07-05T15:14:23;0.50;;;0.50;;
13552;SDS011;6847;48.830;9.116;2022-07-05T15:16:52;0.45;;;0.45;;
13552;SDS011;6847;48.830;9.116;2022-07-05T15:19:19;0.40;;;0.40;;
13552;SDS011;6847;48.830;9.116;2022-07-05T15:21:45;0.60;;;0.60;;
13552;SDS011;6847;48.830;9.116;2022-07-05T15:24:13;0.40;;;0.40;;
13552;SDS011;6847;48.830;9.116;2022-07-05T15:26:40;0.50;;;0.50;;
13552;SDS011;6847;48.830;9.116;2022-07-05T15:29:11;0.50;;;0.50;;
13552;SDS011;6847;48.830;9.116;2022-07-05T15:31:39;0.60;;;0.60;;
13552;SDS011;6847;48.830;9.116;2022-07-05T15:34:10;0.30;;;0.30;;
13552;SDS011;6847;48.830;9.116;2022-07-05T15:36:39;0.50;;;0.50;;
13552;SDS011;6847;48.830;9.116;2022-07-05T15:39:07;0.40;;;0.40;;
13552;SDS011;6847;48.830;9.116;2022-07-05T15:41:34;0.50;;;0.50;;
13552;SDS011;6847;48.830;9.116;2022-07-05T15:44:03;0.38;;;0.38;;
13552;SDS011;6847;48.830;9.116;2022-07-05T15:46:33;0.40;;;0.40;;
13552;SDS011;6847;48.830;9.116;2022-07-05T15:49:20;0.47;;;0.47;;
13552;SDS011;6847;48.830;9.116;2022-07-05T15:51:48;0.40;;;0.40;;
13552;SDS011;6847;48.830;9.116;2022-07-05T15:54:16;0.50;;;0.50;;